Terminal Aerodrome Forecast
Issued by NWS

Current Version | Previous Version | Text Only | Print | Product List | Glossary On
Versions: 1 2 3 4 5 6 7 8 9 10 11 12
000
FTUS45 KABQ 300530
TAFFMN
TAF
KFMN 300530Z 3006/0106 08005KT P6SM SCT080
     FM301500 VRB06KT P6SM SCT090
     FM302100 28010KT P6SM SCT100
     FM010100 VRB06KT P6SM SKC=

USA.gov is the U.S. government's official web portal to all federal, state and local government web resources and services.